Data for 02/22/2014

Time Sea-Level Adjusted Pressure Absolute Pressure Temperature Relative Humidity Dew Point   
(mb) (inHg) (mb) (inHg) (C) (F) (%) (C) (F)
00:05 1014 29.94 843 24.89 -6.3 20.6 80 -9.2 15.4
00:10 1014 29.94 843 24.89 -6.3 20.7 77 -9.7 14.5
00:15 1014 29.94 843 24.89 -6.2 20.8 78 -9.5 14.9
00:20 1014 29.94 843 24.89 -6.3 20.7 77 -9.8 14.4
00:25 1014 29.94 843 24.89 -6.2 20.8 72 -10.5 13.2
00:30 1014 29.94 843 24.89 -6.2 20.8 72 -10.4 13.2
00:35 1014 29.94 843 24.89 -6.3 20.7 72 -10.5 13.2
00:40 1014 29.94 843 24.89 -6.3 20.7 72 -10.6 12.8
00:45 1014 29.94 843 24.89 -6.3 20.6 71 -10.8 12.5
00:50 1014 29.94 843 24.89 -6.4 20.5 72 -10.7 12.7
00:55 1014 29.94 843 24.89 -6.5 20.4 73 -10.6 13
01:00 1014 29.94 843 24.89 -6.5 20.2 76 -10 13.9
01:05 1014 29.94 843 24.89 -6.7 19.9 81 -9.4 15
01:10 1014 29.94 843 24.89 -6.9 19.5 82 -9.5 15
01:15 1014 29.94 843 24.89 -7.1 19.3 85 -9.2 15.4
01:20 1014 29.94 844 24.92 -7.2 19.1 86 -9.2 15.5
01:25 1014 29.94 843 24.89 -7.2 19 86 -9.2 15.4
01:30 1014 29.94 844 24.92 -7.3 18.9 87 -9.1 15.7
01:35 1014 29.94 843 24.89 -7.4 18.7 88 -9 15.8
01:40 1014 29.94 844 24.92 -7.5 18.5 89 -9 15.8
01:45 1014 29.94 844 24.92 -7.5 18.5 90 -8.9 15.9
01:50 1015 29.97 844 24.92 -7.5 18.6 89 -8.9 15.9
01:55 1014 29.94 844 24.92 -7.5 18.6 89 -8.9 15.9
02:00 1014 29.94 844 24.92 -7.4 18.6 89 -9 15.8
02:05 1014 29.94 844 24.92 -7.5 18.5 89 -9 15.8
02:10 1015 29.97 844 24.92 -7.5 18.6 89 -9 15.8
02:15 1015 29.97 844 24.92 -7.5 18.5 89 -9.1 15.6
02:20 1015 29.97 844 24.92 -7.6 18.3 89 -9.1 15.7
02:25 1015 29.97 844 24.92 -7.7 18.2 90 -9.1 15.6
02:30 1015 29.97 844 24.92 -7.7 18.1 90 -9.1 15.6
02:35 1015 29.97 844 24.92 -7.7 18.1 90 -9 15.7
02:40 1015 29.97 844 24.92 -7.7 18.1 91 -8.9 15.9
02:45 1015 29.97 844 24.92 -7.6 18.4 91 -8.7 16.3
02:50 1015 29.97 844 24.92 -7.5 18.5 90 -8.9 16.1
02:55 1015 29.97 844 24.92 -7.6 18.3 90 -8.9 16
03:00 1015 29.97 844 24.92 -7.7 18.2 91 -9 15.9
03:05 1015 29.97 844 24.92 -7.7 18.1 90 -9 15.8
03:10 1015 29.97 844 24.92 -7.8 18 90 -9.2 15.4
03:15 1015 29.97 844 24.92 -7.9 17.7 90 -9.4 15.2
03:20 1015 29.97 844 24.92 -8.1 17.4 90 -9.5 14.8
03:25 1015 29.97 844 24.92 -8.3 17.2 90 -9.6 14.7
03:30 1015 29.97 844 24.92 -8.3 17 90 -9.7 14.5
03:35 1015 29.97 844 24.92 -8.4 16.9 90 -9.8 14.4
03:40 1015 29.97 844 24.92 -8.4 16.9 90 -9.8 14.4
03:45 1015 29.97 844 24.92 -8.3 17 90 -9.7 14.5
03:50 1015 29.97 844 24.92 -8.4 16.9 90 -9.8 14.4
03:55 1015 29.97 844 24.92 -8.4 16.9 89 -9.8 14.3
04:00 1015 29.97 844 24.92 -8.4 16.8 90 -9.8 14.3
04:05 1015 29.97 844 24.92 -8.4 16.9 90 -9.7 14.5
04:10 1015 29.97 844 24.92 -8.4 16.9 89 -9.9 14.3
04:15 1015 29.97 844 24.92 -8.4 17 90 -9.8 14.4
04:20 1015 29.97 844 24.92 -8.4 16.9 89 -9.8 14.3
04:25 1015 29.97 844 24.92 -8.5 16.8 89 -9.9 14.1
04:30 1015 29.97 844 24.92 -8.5 16.7 89 -10 14.1
04:35 1015 29.97 844 24.92 -8.5 16.8 89 -9.9 14.2
04:40 1015 29.97 844 24.92 -8.5 16.7 89 -9.9 14.1
04:45 1015 29.97 844 24.92 -8.5 16.7 89 -10 14
04:50 1015 29.97 844 24.92 -8.5 16.8 89 -9.9 14.1
04:55 1015 29.97 844 24.92 -8.4 16.8 89 -9.9 14.1
05:00 1015 29.97 844 24.92 -8.4 16.8 89 -10 14
05:05 1015 29.97 844 24.92 -8.5 16.8 89 -10 14.1
05:10 1015 29.97 844 24.92 -8.5 16.8 89 -10 14.1
05:15 1015 29.97 844 24.92 -8.5 16.8 89 -10 14
05:20 1015 29.97 844 24.92 -8.5 16.8 88 -10.1 13.8
05:25 1015 29.97 844 24.92 -8.5 16.8 88 -10.1 13.8
05:30 1015 29.97 844 24.92 -8.5 16.8 89 -10 14
05:35 1015 29.97 844 24.92 -8.4 16.8 89 -10 14.1
05:40 1015 29.97 844 24.92 -8.4 16.8 89 -10 14
05:45 1015 29.97 844 24.92 -8.5 16.8 89 -10 14
05:50 1015 29.97 844 24.92 -8.5 16.8 89 -10 14
05:55 1015 29.97 844 24.92 -8.5 16.7 89 -10 14
06:00 1015 29.97 844 24.92 -8.5 16.6 89 -10 14
06:05 1015 29.97 844 24.92 -8.5 16.6 89 -10.1 13.9
06:10 1015 29.97 844 24.92 -8.6 16.6 88 -10.2 13.6
06:15 1015 29.97 844 24.92 -8.6 16.5 88 -10.3 13.5
06:20 1015 29.97 844 24.92 -8.7 16.3 87 -10.5 13.2
06:25 1015 29.97 844 24.92 -8.7 16.3 86 -10.6 12.9
06:30 1015 29.97 844 24.92 -8.8 16.2 86 -10.7 12.8
06:35 1015 29.97 844 24.92 -8.8 16.2 86 -10.7 12.8
06:40 1015 29.97 844 24.92 -8.9 16.1 86 -10.8 12.5
06:45 1015 29.97 844 24.92 -8.9 15.9 86 -10.9 12.4
06:50 1015 29.97 844 24.92 -9 15.9 85 -11 12.2
06:55 1015 29.97 844 24.92 -9 15.8 85 -11.1 12
07:00 1015 29.97 844 24.92 -9 15.8 85 -11.1 12
07:05 1015 29.97 844 24.92 -9.1 15.7 84 -11.2 11.8
07:10 1015 29.97 845 24.95 -9.1 15.7 85 -11.1 12
07:15 1015 29.97 845 24.95 -9 15.7 85 -11.1 12
07:20 1015 29.97 845 24.95 -9 15.7 85 -11.2 11.9
07:25 1015 29.97 845 24.95 -9.1 15.6 84 -11.4 11.5
07:30 1015 29.97 845 24.95 -9.1 15.6 84 -11.4 11.5
07:35 1015 29.97 845 24.95 -9.1 15.6 84 -11.4 11.5
07:40 1015 29.97 845 24.95 -9.2 15.5 84 -11.4 11.5
07:45 1015 29.97 845 24.95 -9.2 15.4 84 -11.4 11.5
07:50 1015 29.97 845 24.95 -9.2 15.4 84 -11.5 11.4
07:55 1015 29.97 845 24.95 -9.3 15.4 84 -11.5 11.3
08:00 1015 29.97 845 24.95 -9.2 15.4 83 -11.5 11.2
08:05 1015 29.97 845 24.95 -9.2 15.4 82 -11.8 10.8
08:10 1015 29.97 845 24.95 -9.3 15.3 82 -11.7 10.9
08:15 1015 29.97 845 24.95 -9.3 15.4 82 -11.9 10.7
08:20 1015 29.97 845 24.95 -9.3 15.3 82 -11.8 10.8
08:25 1016 30 845 24.95 -9.3 15.3 82 -11.7 10.9
08:30 1016 30 845 24.95 -9.3 15.2 83 -11.7 10.9
08:35 1016 30 845 24.95 -9.4 15.1 83 -11.8 10.8
08:40 1016 30 845 24.95 -9.4 15.1 83 -11.7 10.9
08:45 1016 30 845 24.95 -9.5 14.9 84 -11.7 10.9
08:50 1016 30 845 24.95 -9.5 15 84 -11.6 11.1
08:55 1016 30 845 24.95 -9.5 14.9 84 -11.7 11
09:00 1016 30 845 24.95 -9.5 14.9 84 -11.7 10.9
09:05 1016 30 845 24.95 -9.5 15 84 -11.7 11
09:10 1016 30 845 24.95 -9.7 14.6 86 -11.7 11
09:15 1016 30 845 24.95 -9.7 14.5 85 -11.7 10.9
09:20 1016 30 845 24.95 -9.6 14.6 86 -11.6 11.2
09:25 1016 30 845 24.95 -9.5 14.9 85 -11.6 11.1
09:30 1016 30 845 24.95 -9.5 14.9 85 -11.6 11.1
09:35 1016 30 845 24.95 -9.4 15.2 84 -11.6 11.1
09:40 1016 30 845 24.95 -9.3 15.3 83 -11.7 11
09:45 1016 30 845 24.95 -9.3 15.2 82 -11.8 10.8
09:50 1016 30 845 24.95 -9.4 15.2 82 -11.9 10.6
09:55 1016 30 845 24.95 -9.3 15.2 82 -11.8 10.7
10:00 1016 30 845 24.95 -9.4 15.2 83 -11.7 10.9
10:05 1016 30 845 24.95 -9.2 15.4 82 -11.8 10.8
10:10 1016 30 845 24.95 -9.2 15.5 80 -12 10.5
10:15 1016 30 845 24.95 -9.3 15.3 82 -11.8 10.8
10:20 1016 30 845 24.95 -9.2 15.5 81 -11.9 10.6
10:25 1016 30 845 24.95 -9.4 15.1 83 -11.8 10.8
10:30 1016 30 845 24.95 -9.4 15.2 82 -11.8 10.7
10:35 1016 30 845 24.95 -9.3 15.3 80 -12 10.3
10:40 1016 30 845 24.95 -9.3 15.3 80 -12.1 10.2
10:45 1016 30 845 24.95 -9.2 15.4 79 -12.2 10.1
10:50 1016 30 845 24.95 -8.9 15.9 78 -12.1 10.1
10:55 1016 30 846 24.98 -9.1 15.7 78 -12.3 9.8
11:00 1016 30 846 24.98 -9.1 15.7 78 -12.1 10.1
11:05 1016 30 846 24.98 -9 15.9 77 -12.3 9.9
11:10 1016 30 846 24.98 -9 15.9 77 -12.2 10
11:15 1016 30 846 24.98 -9.1 15.6 77 -12.4 9.7
11:20 1016 30 846 24.98 -8.7 16.3 76 -12.2 10.1
11:25 1017 30.03 846 24.98 -8.8 16.2 78 -12 10.5
11:30 1017 30.03 846 24.98 -8.9 16 77 -12.3 9.9
11:35 1017 30.03 846 24.98 -8.9 16 76 -12.4 9.8
11:40 1017 30.03 846 24.98 -8.6 16.5 76 -12.1 10.2
11:45 1016 30 846 24.98 -8.5 16.7 76 -11.9 10.5
11:50 1017 30.03 846 24.98 -8.5 16.6 76 -12.1 10.2
11:55 1017 30.03 846 24.98 -8.6 16.6 76 -12.1 10.3
12:00 1017 30.03 846 24.98 -8.5 16.7 76 -12 10.4
12:05 1016 30 846 24.98 -8.3 17.1 76 -11.9 10.7
12:10 1016 30 846 24.98 -8.3 17.1 75 -11.9 10.5
12:15 1016 30 846 24.98 -8.2 17.2 75 -11.8 10.7
12:20 1016 30 846 24.98 -8.1 17.5 77 -11.5 11.3
12:25 1016 30 846 24.98 -8.1 17.4 76 -11.6 11.2
12:30 1016 30 846 24.98 -8.2 17.3 76 -11.7 10.9
12:35 1016 30 846 24.98 -8.1 17.3 77 -11.6 11.2
12:40 1016 30 846 24.98 -7.9 17.7 76 -11.5 11.4
12:45 1016 30 845 24.95 -7.8 17.9 76 -11.4 11.5
12:50 1016 30 845 24.95 -7.9 17.7 75 -11.6 11.2
12:55 1016 30 845 24.95 -7.7 18.1 74 -11.5 11.3
13:00 1016 30 845 24.95 -7.3 18.8 71 -11.7 10.9
13:05 1016 30 845 24.95 -7.1 19.2 71 -11.4 11.4
13:10 1016 30 845 24.95 -7.2 19.1 69 -11.9 10.6
13:15 1016 30 845 24.95 -6.8 19.8 67 -11.9 10.6
13:20 1016 30 845 24.95 -5.9 21.5 64 -11.6 11.1
13:25 1016 30 845 24.95 -5.3 22.4 63 -11.3 11.6
13:30 1016 30 845 24.95 -5.1 22.9 60 -11.6 11
13:35 1016 30 845 24.95 -4.9 23.3 60 -11.5 11.3
13:40 1016 30 845 24.95 -4.3 24.3 57 -11.5 11.3
13:45 1016 30 845 24.95 -4.2 24.5 56 -11.7 11
13:50 1016 30 845 24.95 -4.1 24.7 51 -12.9 8.8
13:55 1016 30 845 24.95 -4.3 24.3 55 -12 10.4
14:00 1016 30 845 24.95 -5.6 21.9 56 -13 8.5
14:05 1016 30 845 24.95 -4.9 23.2 52 -13.4 7.9
14:10 1015 29.97 845 24.95 -3.9 24.9 50 -13 8.6
14:15 1015 29.97 845 24.95 -3.5 25.7 50 -12.4 9.6
14:20 1015 29.97 845 24.95 -4 24.9 53 -12.2 10
14:25 1015 29.97 845 24.95 -4.3 24.3 51 -12.9 8.8
14:30 1015 29.97 845 24.95 -4.1 24.7 50 -13.1 8.4
14:35 1015 29.97 845 24.95 -3.6 25.6 52 -12.1 10.1
14:40 1015 29.97 844 24.92 -5 23 61 -11.4 11.4
14:45 1015 29.97 844 24.92 -5.1 22.9 58 -12.2 10.1
14:50 1015 29.97 844 24.92 -5.1 22.8 58 -12.2 10
14:55 1015 29.97 844 24.92 -5.3 22.5 63 -11.2 11.9
15:00 1015 29.97 844 24.92 -5.8 21.5 63 -11.8 10.7
15:05 1015 29.97 844 24.92 -5.5 22.1 62 -11.7 11
15:10 1015 29.97 844 24.92 -4.9 23.2 60 -11.5 11.3
15:15 1015 29.97 844 24.92 -5.1 22.8 61 -11.6 11.2
15:20 1015 29.97 844 24.92 -4.8 23.4 55 -12.6 9.3
15:25 1015 29.97 844 24.92 -3.9 24.9 54 -11.9 10.6
15:30 1015 29.97 844 24.92 -4.2 24.5 49 -13.3 8.1
15:35 1015 29.97 844 24.92 -4.8 23.3 52 -13.3 8.1
15:40 1015 29.97 844 24.92 -4.4 24.1 54 -12.3 9.8
15:45 1015 29.97 844 24.92 -4 24.8 51 -12.8 8.9
15:50 1015 29.97 844 24.92 -3.8 25.2 50 -12.8 8.9
15:55 1015 29.97 844 24.92 -3.5 25.8 48 -13 8.7
16:00 1015 29.97 844 24.92 -3.3 26 47 -13.1 8.5
16:05 1015 29.97 844 24.92 -3.6 25.6 50 -12.5 9.5
16:10 1015 29.97 844 24.92 -3.7 25.3 51 -12.3 9.8
16:15 1015 29.97 844 24.92 -4 24.8 53 -12.3 9.8
16:20 1015 29.97 844 24.92 -3.9 25 54 -11.8 10.8
16:25 1015 29.97 844 24.92 -3.8 25.1 51 -12.5 9.5
16:30 1015 29.97 844 24.92 -4 24.9 51 -12.8 9
16:35 1015 29.97 844 24.92 -4.2 24.5 46 -14.2 6.4
16:40 1015 29.97 844 24.92 -4 24.9 40 -15.8 3.6
16:45 1015 29.97 844 24.92 -4.2 24.4 43 -15.1 4.8
16:50 1015 29.97 844 24.92 -4.5 23.8 43 -15.3 4.4
16:55 1015 29.97 844 24.92 -4 24.8 42 -15.1 4.8
17:00 1015 29.97 844 24.92 -3.3 26.1 41 -14.8 5.3
17:05 1015 29.97 844 24.92 -3.1 26.3 40 -14.9 5.1
17:10 1015 29.97 844 24.92 -3.3 26.1 44 -14 6.9
17:15 1015 29.97 844 24.92 -3.4 25.8 43 -14.4 6.1
17:20 1015 29.97 844 24.92 -3.3 26 44 -13.9 6.9
17:25 1015 29.97 844 24.92 -3.9 25 49 -13.2 8.2
17:30 1015 29.97 844 24.92 -4.7 23.5 48 -14.1 6.6
17:35 1015 29.97 844 24.92 -4.6 23.7 47 -14.3 6.3
17:40 1015 29.97 844 24.92 -4.2 24.4 46 -14.3 6.2
17:45 1015 29.97 844 24.92 -4.4 24.1 46 -14.3 6.3
17:50 1015 29.97 844 24.92 -4.5 23.9 47 -14.1 6.7
17:55 1015 29.97 844 24.92 -5.1 22.8 50 -13.9 7
18:00 1015 29.97 844 24.92 -5.3 22.5 51 -14 6.8
18:05 1015 29.97 844 24.92 -5.5 22.1 53 -13.8 7.2
18:10 1015 29.97 844 24.92 -5.9 21.4 53 -14 6.8
18:15 1015 29.97 844 24.92 -5.9 21.4 53 -14.1 6.7
18:20 1015 29.97 844 24.92 -5.7 21.7 51 -14.3 6.2
18:25 1015 29.97 844 24.92 -5.7 21.7 52 -14.1 6.7
18:30 1015 29.97 844 24.92 -5.8 21.6 48 -15.1 4.8
18:35 1015 29.97 844 24.92 -6.5 20.4 50 -15.2 4.7
18:40 1015 29.97 844 24.92 -6.7 20 50 -15.4 4.3
18:45 1015 29.97 844 24.92 -6.8 19.7 52 -15.2 4.7
18:50 1015 29.97 844 24.92 -6.8 19.7 51 -15.3 4.5
18:55 1015 29.97 844 24.92 -6.9 19.6 51 -15.4 4.2
19:00 1015 29.97 844 24.92 -6.9 19.5 52 -15.3 4.4
19:05 1015 29.97 844 24.92 -7 19.3 52 -15.4 4.4
19:10 1015 29.97 844 24.92 -7 19.4 56 -14.3 6.2
19:15 1015 29.97 845 24.95 -7.1 19.2 58 -14 6.9
19:20 1015 29.97 845 24.95 -7.2 19.1 56 -14.6 5.6
19:25 1015 29.97 845 24.95 -7.2 19 59 -13.9 7
19:30 1015 29.97 845 24.95 -7.4 18.7 61 -13.6 7.5
19:35 1016 30 845 24.95 -7.4 18.6 62 -13.5 7.7
19:40 1016 30 845 24.95 -7.5 18.5 64 -13.2 8.2
19:45 1016 30 845 24.95 -7.5 18.6 67 -12.6 9.3
19:50 1016 30 845 24.95 -7.8 17.9 72 -12.1 10.3
19:55 1016 30 845 24.95 -8.1 17.5 74 -11.9 10.6
20:00 1016 30 845 24.95 -8.2 17.3 77 -11.5 11.2
20:05 1016 30 845 24.95 -8.3 17.1 77 -11.6 11.2
20:10 1016 30 845 24.95 -8.4 16.9 80 -11.3 11.6
20:15 1016 30 845 24.95 -8.4 16.8 80 -11.3 11.6
20:20 1016 30 845 24.95 -8.5 16.7 80 -11.4 11.5
20:25 1016 30 845 24.95 -8.6 16.6 80 -11.5 11.4
20:30 1016 30 845 24.95 -8.6 16.5 79 -11.6 11.2
20:35 1016 30 845 24.95 -8.7 16.3 80 -11.6 11.1
20:40 1016 30 845 24.95 -8.7 16.4 80 -11.6 11.1
20:45 1016 30 845 24.95 -8.8 16.1 81 -11.6 11.1
20:50 1016 30 845 24.95 -8.9 16 81 -11.6 11.1
20:55 1016 30 845 24.95 -8.9 15.9 81 -11.6 11.1
21:00 1016 30 845 24.95 -9 15.9 81 -11.6 11.1
21:05 1016 30 845 24.95 -9 15.8 81 -11.7 10.9
21:10 1016 30 845 24.95 -9 15.8 81 -11.7 10.9
21:15 1016 30 845 24.95 -9 15.8 79 -12 10.4
21:20 1016 30 845 24.95 -9 15.9 78 -12.2 10
21:25 1016 30 845 24.95 -8.9 16 79 -11.9 10.5
21:30 1016 30 845 24.95 -8.9 15.9 79 -12 10.5
21:35 1016 30 845 24.95 -8.9 15.9 78 -12.2 10.1
21:40 1016 30 845 24.95 -8.9 16 76 -12.5 9.6
21:45 1016 30 845 24.95 -8.9 16 76 -12.4 9.7
21:50 1016 30 845 24.95 -8.9 16.1 75 -12.6 9.4
21:55 1016 30 845 24.95 -8.8 16.1 74 -12.8 9
22:00 1016 30 845 24.95 -8.9 16.1 74 -12.7 9.1
22:05 1016 30 845 24.95 -8.9 16.1 74 -12.7 9.1
22:10 1016 30 845 24.95 -8.9 16.1 74 -12.7 9.1
22:15 1016 30 845 24.95 -8.8 16.1 74 -12.6 9.3
22:20 1016 30 845 24.95 -8.9 15.9 74 -12.7 9.1
22:25 1016 30 845 24.95 -9 15.8 74 -12.8 9
22:30 1016 30 845 24.95 -9 15.7 75 -12.8 9
22:35 1016 30 845 24.95 -9.2 15.5 74 -12.9 8.7
22:40 1016 30 845 24.95 -9.2 15.4 74 -13 8.6
22:45 1016 30 845 24.95 -9.3 15.3 74 -13.1 8.5
22:50 1016 30 845 24.95 -9.3 15.3 74 -13.1 8.3
22:55 1016 30 845 24.95 -9.3 15.3 73 -13.2 8.2
23:00 1016 30 845 24.95 -9.4 15.2 73 -13.3 8.1
23:05 1016 30 845 24.95 -9.4 15.1 74 -13.2 8.2
23:10 1016 30 845 24.95 -9.4 15 73 -13.4 8
23:15 1016 30 845 24.95 -9.4 15 73 -13.5 7.7
23:20 1016 30 845 24.95 -9.5 15 73 -13.5 7.6
23:25 1016 30 845 24.95 -9.5 14.9 73 -13.6 7.6
23:30 1016 30 845 24.95 -9.5 14.9 73 -13.6 7.6
23:35 1016 30 845 24.95 -9.5 14.9 73 -13.5 7.7
23:40 1016 30 845 24.95 -9.5 14.8 73 -13.6 7.5
23:45 1016 30 845 24.95 -9.5 14.9 73 -13.5 7.6
23:50 1016 30 845 24.95 -9.5 14.8 73 -13.5 7.8
23:55 1016 30 845 24.95 -9.6 14.8 75 -13.2 8.2
24:00 1016 30 845 24.95 -9.6 14.7 75 -13.2 8.2